Terminal Aerodrome Forecast
Issued by NWS

Home | Current Version | Previous Version | Graphics & Text | Print | Product List | Glossary On
Versions: 1 2 3 4 5 6 7 8 9 10 11 12 13 14 15 16 17 18 19 20 21 22 23 24 25 26 27 28 29 30 31 32 33 34 35 36 37 38 39 40 41 42 43 44 45 46 47 48 49 50
363
FTUS43 KLOT 160520
TAFGYY
TAF
KGYY 160520Z 1606/1706 33006KT P6SM OVC100
     FM160800 35010KT P6SM SCT009 OVC015
      TEMPO 1608/1610 35012G18KT OVC009
     FM161500 30010KT P6SM SCT025
     FM162000 28006KT P6SM SKC
     FM170200 00000KT P6SM SKC=

USA.gov is the U.S. government's official web portal to all federal, state and local government web resources and services.